sensor_id;sensor_type;location;lat;lon;timestamp;P1;durP1;ratioP1;P2;durP2;ratioP2
73170;SDS011;61381;50.118;19.962;2023-07-31T00:04:57;8.48;;;4.60;;
73170;SDS011;61381;50.118;19.962;2023-07-31T00:09:58;6.97;;;4.30;;
73170;SDS011;61381;50.118;19.962;2023-07-31T00:15:00;9.07;;;4.55;;
73170;SDS011;61381;50.118;19.962;2023-07-31T00:20:01;8.00;;;4.47;;
73170;SDS011;61381;50.118;19.962;2023-07-31T00:25:02;6.88;;;3.75;;
73170;SDS011;61381;50.118;19.962;2023-07-31T00:30:05;10.00;;;4.50;;
73170;SDS011;61381;50.118;19.962;2023-07-31T00:35:07;7.20;;;4.05;;
73170;SDS011;61381;50.118;19.962;2023-07-31T00:40:08;7.80;;;4.50;;
73170;SDS011;61381;50.118;19.962;2023-07-31T00:45:11;6.68;;;3.95;;
73170;SDS011;61381;50.118;19.962;2023-07-31T00:50:11;6.85;;;4.20;;
73170;SDS011;61381;50.118;19.962;2023-07-31T00:55:14;6.90;;;4.00;;
73170;SDS011;61381;50.118;19.962;2023-07-31T01:00:16;5.45;;;3.42;;
73170;SDS011;61381;50.118;19.962;2023-07-31T01:05:17;6.68;;;3.55;;
73170;SDS011;61381;50.118;19.962;2023-07-31T01:10:21;7.78;;;3.53;;
73170;SDS011;61381;50.118;19.962;2023-07-31T01:15:28;5.68;;;3.55;;
73170;SDS011;61381;50.118;19.962;2023-07-31T01:20:29;4.95;;;3.25;;
73170;SDS011;61381;50.118;19.962;2023-07-31T01:25:36;7.00;;;3.83;;
73170;SDS011;61381;50.118;19.962;2023-07-31T01:30:48;6.82;;;3.30;;
73170;SDS011;61381;50.118;19.962;2023-07-31T01:35:49;7.57;;;4.25;;
73170;SDS011;61381;50.118;19.962;2023-07-31T01:40:52;5.78;;;3.28;;
73170;SDS011;61381;50.118;19.962;2023-07-31T01:45:53;7.00;;;3.58;;
73170;SDS011;61381;50.118;19.962;2023-07-31T01:50:54;4.93;;;3.50;;
73170;SDS011;61381;50.118;19.962;2023-07-31T01:55:56;6.55;;;3.72;;
73170;SDS011;61381;50.118;19.962;2023-07-31T02:00:57;4.63;;;3.25;;
73170;SDS011;61381;50.118;19.962;2023-07-31T02:05:58;5.90;;;2.88;;
73170;SDS011;61381;50.118;19.962;2023-07-31T02:11:00;5.90;;;3.28;;
73170;SDS011;61381;50.118;19.962;2023-07-31T02:16:01;4.60;;;3.05;;
73170;SDS011;61381;50.118;19.962;2023-07-31T02:21:02;4.45;;;2.90;;
73170;SDS011;61381;50.118;19.962;2023-07-31T02:26:05;5.97;;;4.05;;
73170;SDS011;61381;50.118;19.962;2023-07-31T02:31:06;7.53;;;3.85;;
73170;SDS011;61381;50.118;19.962;2023-07-31T02:36:06;5.60;;;3.53;;
73170;SDS011;61381;50.118;19.962;2023-07-31T02:41:09;6.20;;;3.92;;
73170;SDS011;61381;50.118;19.962;2023-07-31T02:46:09;7.80;;;4.15;;
73170;SDS011;61381;50.118;19.962;2023-07-31T02:51:10;7.47;;;3.88;;
73170;SDS011;61381;50.118;19.962;2023-07-31T02:56:13;6.97;;;4.25;;
73170;SDS011;61381;50.118;19.962;2023-07-31T03:01:14;7.50;;;4.40;;
73170;SDS011;61381;50.118;19.962;2023-07-31T03:06:14;8.23;;;4.25;;
73170;SDS011;61381;50.118;19.962;2023-07-31T03:11:17;7.15;;;4.47;;
73170;SDS011;61381;50.118;19.962;2023-07-31T03:16:17;5.78;;;3.88;;
73170;SDS011;61381;50.118;19.962;2023-07-31T03:21:18;7.70;;;4.38;;
73170;SDS011;61381;50.118;19.962;2023-07-31T03:26:21;5.97;;;3.45;;
73170;SDS011;61381;50.118;19.962;2023-07-31T03:31:22;6.18;;;4.15;;
73170;SDS011;61381;50.118;19.962;2023-07-31T03:36:23;7.93;;;3.95;;
73170;SDS011;61381;50.118;19.962;2023-07-31T03:41:25;5.65;;;3.63;;
73170;SDS011;61381;50.118;19.962;2023-07-31T03:46:26;7.32;;;3.90;;
73170;SDS011;61381;50.118;19.962;2023-07-31T03:51:27;7.53;;;3.70;;
73170;SDS011;61381;50.118;19.962;2023-07-31T03:56:29;4.28;;;3.20;;
73170;SDS011;61381;50.118;19.962;2023-07-31T04:01:30;8.90;;;3.67;;
73170;SDS011;61381;50.118;19.962;2023-07-31T04:06:31;5.18;;;3.22;;
73170;SDS011;61381;50.118;19.962;2023-07-31T04:11:33;4.85;;;2.92;;
73170;SDS011;61381;50.118;19.962;2023-07-31T04:16:34;3.80;;;2.65;;
73170;SDS011;61381;50.118;19.962;2023-07-31T04:21:35;3.15;;;2.40;;
73170;SDS011;61381;50.118;19.962;2023-07-31T04:26:37;3.25;;;1.92;;
73170;SDS011;61381;50.118;19.962;2023-07-31T04:31:38;3.58;;;1.80;;
73170;SDS011;61381;50.118;19.962;2023-07-31T04:36:39;2.83;;;2.17;;
73170;SDS011;61381;50.118;19.962;2023-07-31T04:41:41;5.03;;;2.35;;
73170;SDS011;61381;50.118;19.962;2023-07-31T04:46:42;2.97;;;2.38;;
73170;SDS011;61381;50.118;19.962;2023-07-31T04:51:43;4.97;;;2.55;;
73170;SDS011;61381;50.118;19.962;2023-07-31T04:56:45;2.60;;;1.98;;
73170;SDS011;61381;50.118;19.962;2023-07-31T05:01:46;3.78;;;2.13;;
73170;SDS011;61381;50.118;19.962;2023-07-31T05:06:47;5.65;;;2.10;;
73170;SDS011;61381;50.118;19.962;2023-07-31T05:11:49;3.22;;;1.85;;
73170;SDS011;61381;50.118;19.962;2023-07-31T05:16:50;4.45;;;2.40;;
73170;SDS011;61381;50.118;19.962;2023-07-31T05:21:51;4.57;;;2.55;;
73170;SDS011;61381;50.118;19.962;2023-07-31T05:26:53;3.97;;;3.00;;
73170;SDS011;61381;50.118;19.962;2023-07-31T05:31:54;3.90;;;2.85;;
73170;SDS011;61381;50.118;19.962;2023-07-31T05:36:55;3.80;;;2.70;;
73170;SDS011;61381;50.118;19.962;2023-07-31T05:41:57;4.05;;;2.63;;
73170;SDS011;61381;50.118;19.962;2023-07-31T05:46:58;4.40;;;2.90;;
73170;SDS011;61381;50.118;19.962;2023-07-31T05:51:59;5.68;;;2.67;;
73170;SDS011;61381;50.118;19.962;2023-07-31T05:57:01;4.00;;;2.60;;
73170;SDS011;61381;50.118;19.962;2023-07-31T06:02:02;3.00;;;2.53;;
73170;SDS011;61381;50.118;19.962;2023-07-31T06:07:03;4.05;;;2.67;;
73170;SDS011;61381;50.118;19.962;2023-07-31T06:12:06;6.03;;;3.20;;
73170;SDS011;61381;50.118;19.962;2023-07-31T06:17:07;5.30;;;4.20;;
73170;SDS011;61381;50.118;19.962;2023-07-31T06:22:08;5.97;;;3.88;;
73170;SDS011;61381;50.118;19.962;2023-07-31T06:27:10;7.97;;;4.05;;
73170;SDS011;61381;50.118;19.962;2023-07-31T06:32:11;4.80;;;3.78;;
73170;SDS011;61381;50.118;19.962;2023-07-31T06:37:12;5.57;;;4.07;;
73170;SDS011;61381;50.118;19.962;2023-07-31T06:42:14;6.03;;;4.00;;
73170;SDS011;61381;50.118;19.962;2023-07-31T06:47:15;7.65;;;4.47;;
73170;SDS011;61381;50.118;19.962;2023-07-31T06:52:16;6.75;;;4.53;;
73170;SDS011;61381;50.118;19.962;2023-07-31T06:57:18;5.40;;;4.03;;
73170;SDS011;61381;50.118;19.962;2023-07-31T07:02:19;4.22;;;3.30;;
73170;SDS011;61381;50.118;19.962;2023-07-31T07:07:20;4.50;;;3.47;;
73170;SDS011;61381;50.118;19.962;2023-07-31T07:12:22;4.25;;;2.90;;
73170;SDS011;61381;50.118;19.962;2023-07-31T07:17:23;5.15;;;2.92;;
73170;SDS011;61381;50.118;19.962;2023-07-31T07:22:24;5.55;;;2.83;;
73170;SDS011;61381;50.118;19.962;2023-07-31T07:27:27;3.80;;;2.85;;
73170;SDS011;61381;50.118;19.962;2023-07-31T07:32:28;5.10;;;2.85;;
73170;SDS011;61381;50.118;19.962;2023-07-31T07:37:29;4.63;;;3.13;;
73170;SDS011;61381;50.118;19.962;2023-07-31T07:42:31;4.32;;;3.13;;
73170;SDS011;61381;50.118;19.962;2023-07-31T07:47:32;6.55;;;3.10;;
73170;SDS011;61381;50.118;19.962;2023-07-31T07:52:33;5.07;;;2.70;;
73170;SDS011;61381;50.118;19.962;2023-07-31T07:57:35;8.20;;;3.20;;
73170;SDS011;61381;50.118;19.962;2023-07-31T08:02:36;3.42;;;2.00;;
73170;SDS011;61381;50.118;19.962;2023-07-31T08:07:37;4.85;;;2.45;;
73170;SDS011;61381;50.118;19.962;2023-07-31T08:12:39;4.32;;;2.45;;
73170;SDS011;61381;50.118;19.962;2023-07-31T08:17:40;3.35;;;2.13;;
73170;SDS011;61381;50.118;19.962;2023-07-31T08:22:41;4.75;;;1.90;;
73170;SDS011;61381;50.118;19.962;2023-07-31T08:27:44;6.22;;;2.83;;
73170;SDS011;61381;50.118;19.962;2023-07-31T08:32:45;4.53;;;2.70;;
73170;SDS011;61381;50.118;19.962;2023-07-31T08:37:45;5.78;;;2.80;;
73170;SDS011;61381;50.118;19.962;2023-07-31T08:42:48;4.22;;;2.80;;
73170;SDS011;61381;50.118;19.962;2023-07-31T08:47:51;3.58;;;2.30;;
73170;SDS011;61381;50.118;19.962;2023-07-31T08:52:52;3.35;;;2.33;;
73170;SDS011;61381;50.118;19.962;2023-07-31T08:57:54;4.53;;;2.28;;
73170;SDS011;61381;50.118;19.962;2023-07-31T09:02:57;4.68;;;2.67;;
73170;SDS011;61381;50.118;19.962;2023-07-31T09:08:02;3.88;;;2.13;;
73170;SDS011;61381;50.118;19.962;2023-07-31T09:13:06;4.03;;;2.10;;
73170;SDS011;61381;50.118;19.962;2023-07-31T09:18:08;5.63;;;2.60;;
73170;SDS011;61381;50.118;19.962;2023-07-31T09:23:10;3.75;;;2.10;;
73170;SDS011;61381;50.118;19.962;2023-07-31T09:28:14;3.35;;;1.92;;
73170;SDS011;61381;50.118;19.962;2023-07-31T09:33:15;3.78;;;2.00;;
73170;SDS011;61381;50.118;19.962;2023-07-31T09:38:16;3.20;;;1.85;;
73170;SDS011;61381;50.118;19.962;2023-07-31T09:43:19;4.28;;;1.80;;
73170;SDS011;61381;50.118;19.962;2023-07-31T09:48:22;3.78;;;1.80;;
73170;SDS011;61381;50.118;19.962;2023-07-31T09:53:27;3.55;;;2.17;;
73170;SDS011;61381;50.118;19.962;2023-07-31T09:58:30;4.00;;;2.28;;
73170;SDS011;61381;50.118;19.962;2023-07-31T10:03:35;2.35;;;1.45;;
73170;SDS011;61381;50.118;19.962;2023-07-31T10:08:38;4.65;;;1.92;;
73170;SDS011;61381;50.118;19.962;2023-07-31T10:13:42;2.38;;;1.98;;
73170;SDS011;61381;50.118;19.962;2023-07-31T10:18:43;3.28;;;1.70;;
73170;SDS011;61381;50.118;19.962;2023-07-31T10:23:45;4.10;;;2.03;;
73170;SDS011;61381;50.118;19.962;2023-07-31T10:28:49;2.92;;;1.98;;
73170;SDS011;61381;50.118;19.962;2023-07-31T10:33:53;2.33;;;1.60;;
73170;SDS011;61381;50.118;19.962;2023-07-31T10:38:55;4.10;;;1.75;;
73170;SDS011;61381;50.118;19.962;2023-07-31T10:43:59;4.80;;;1.63;;
73170;SDS011;61381;50.118;19.962;2023-07-31T10:49:00;2.67;;;1.73;;
73170;SDS011;61381;50.118;19.962;2023-07-31T10:54:11;2.25;;;1.83;;
73170;SDS011;61381;50.118;19.962;2023-07-31T10:59:15;3.58;;;1.88;;
73170;SDS011;61381;50.118;19.962;2023-07-31T11:04:16;3.45;;;1.77;;
73170;SDS011;61381;50.118;19.962;2023-07-31T11:09:22;2.40;;;1.83;;
73170;SDS011;61381;50.118;19.962;2023-07-31T11:14:25;3.70;;;1.95;;
73170;SDS011;61381;50.118;19.962;2023-07-31T11:19:26;1.88;;;1.67;;
73170;SDS011;61381;50.118;19.962;2023-07-31T11:24:27;2.95;;;1.80;;
73170;SDS011;61381;50.118;19.962;2023-07-31T11:29:29;2.05;;;1.30;;
73170;SDS011;61381;50.118;19.962;2023-07-31T11:34:30;3.38;;;1.70;;
73170;SDS011;61381;50.118;19.962;2023-07-31T11:39:31;3.03;;;1.60;;
73170;SDS011;61381;50.118;19.962;2023-07-31T11:44:40;2.58;;;1.63;;
73170;SDS011;61381;50.118;19.962;2023-07-31T11:49:41;4.43;;;1.70;;
73170;SDS011;61381;50.118;19.962;2023-07-31T11:54:42;3.40;;;1.90;;
73170;SDS011;61381;50.118;19.962;2023-07-31T11:59:44;4.32;;;1.58;;
73170;SDS011;61381;50.118;19.962;2023-07-31T12:04:46;5.20;;;1.60;;
73170;SDS011;61381;50.118;19.962;2023-07-31T12:09:51;6.13;;;1.52;;
73170;SDS011;61381;50.118;19.962;2023-07-31T12:14:54;5.00;;;1.67;;
73170;SDS011;61381;50.118;19.962;2023-07-31T12:19:55;5.13;;;1.80;;
73170;SDS011;61381;50.118;19.962;2023-07-31T12:24:56;3.47;;;1.25;;
73170;SDS011;61381;50.118;19.962;2023-07-31T12:29:59;3.50;;;1.58;;
73170;SDS011;61381;50.118;19.962;2023-07-31T12:35:00;1.63;;;1.42;;
73170;SDS011;61381;50.118;19.962;2023-07-31T12:40:01;3.17;;;1.63;;
73170;SDS011;61381;50.118;19.962;2023-07-31T12:45:04;4.47;;;1.50;;
73170;SDS011;61381;50.118;19.962;2023-07-31T12:50:06;3.92;;;1.73;;
73170;SDS011;61381;50.118;19.962;2023-07-31T12:55:07;4.05;;;1.52;;
73170;SDS011;61381;50.118;19.962;2023-07-31T13:00:10;3.45;;;1.55;;
73170;SDS011;61381;50.118;19.962;2023-07-31T13:05:12;2.78;;;1.38;;
73170;SDS011;61381;50.118;19.962;2023-07-31T13:10:14;3.17;;;1.55;;
73170;SDS011;61381;50.118;19.962;2023-07-31T13:15:16;3.08;;;1.60;;
73170;SDS011;61381;50.118;19.962;2023-07-31T13:20:17;4.15;;;1.73;;
73170;SDS011;61381;50.118;19.962;2023-07-31T13:25:18;2.47;;;1.58;;
73170;SDS011;61381;50.118;19.962;2023-07-31T13:30:21;1.88;;;1.50;;
73170;SDS011;61381;50.118;19.962;2023-07-31T13:35:22;2.38;;;1.70;;
73170;SDS011;61381;50.118;19.962;2023-07-31T13:40:23;4.00;;;1.70;;
73170;SDS011;61381;50.118;19.962;2023-07-31T13:45:25;3.65;;;2.03;;
73170;SDS011;61381;50.118;19.962;2023-07-31T13:50:26;3.67;;;2.10;;
73170;SDS011;61381;50.118;19.962;2023-07-31T13:55:27;2.30;;;2.00;;
73170;SDS011;61381;50.118;19.962;2023-07-31T14:00:29;1.80;;;1.52;;
73170;SDS011;61381;50.118;19.962;2023-07-31T14:05:30;3.08;;;1.80;;
73170;SDS011;61381;50.118;19.962;2023-07-31T14:10:31;3.78;;;2.20;;
73170;SDS011;61381;50.118;19.962;2023-07-31T14:15:33;2.67;;;1.90;;
73170;SDS011;61381;50.118;19.962;2023-07-31T14:20:34;2.63;;;1.70;;
73170;SDS011;61381;50.118;19.962;2023-07-31T14:25:35;3.55;;;1.80;;
73170;SDS011;61381;50.118;19.962;2023-07-31T14:30:37;2.58;;;1.63;;
73170;SDS011;61381;50.118;19.962;2023-07-31T14:35:38;3.20;;;1.70;;
73170;SDS011;61381;50.118;19.962;2023-07-31T14:40:39;2.58;;;1.50;;
73170;SDS011;61381;50.118;19.962;2023-07-31T14:45:42;1.95;;;1.50;;
73170;SDS011;61381;50.118;19.962;2023-07-31T14:50:42;3.35;;;1.67;;
73170;SDS011;61381;50.118;19.962;2023-07-31T14:55:43;3.63;;;1.30;;
73170;SDS011;61381;50.118;19.962;2023-07-31T15:00:46;3.78;;;1.35;;
73170;SDS011;61381;50.118;19.962;2023-07-31T15:05:46;4.53;;;1.73;;
73170;SDS011;61381;50.118;19.962;2023-07-31T15:10:47;3.80;;;1.60;;
73170;SDS011;61381;50.118;19.962;2023-07-31T15:15:51;4.03;;;1.63;;
73170;SDS011;61381;50.118;19.962;2023-07-31T15:20:51;2.75;;;1.80;;
73170;SDS011;61381;50.118;19.962;2023-07-31T15:25:53;3.45;;;1.50;;
73170;SDS011;61381;50.118;19.962;2023-07-31T15:30:56;4.22;;;1.50;;
73170;SDS011;61381;50.118;19.962;2023-07-31T15:35:57;5.10;;;1.80;;
73170;SDS011;61381;50.118;19.962;2023-07-31T15:40:58;6.85;;;1.52;;
73170;SDS011;61381;50.118;19.962;2023-07-31T15:46:00;2.75;;;1.50;;
73170;SDS011;61381;50.118;19.962;2023-07-31T15:51:01;3.30;;;1.40;;
73170;SDS011;61381;50.118;19.962;2023-07-31T15:56:02;4.38;;;1.30;;
73170;SDS011;61381;50.118;19.962;2023-07-31T16:01:04;3.70;;;2.38;;
73170;SDS011;61381;50.118;19.962;2023-07-31T16:06:05;4.50;;;2.20;;
73170;SDS011;61381;50.118;19.962;2023-07-31T16:11:07;4.78;;;1.65;;
73170;SDS011;61381;50.118;19.962;2023-07-31T16:16:09;4.15;;;1.40;;
73170;SDS011;61381;50.118;19.962;2023-07-31T16:21:10;3.60;;;1.63;;
73170;SDS011;61381;50.118;19.962;2023-07-31T16:26:11;2.42;;;1.20;;
73170;SDS011;61381;50.118;19.962;2023-07-31T16:31:13;3.55;;;1.63;;
73170;SDS011;61381;50.118;19.962;2023-07-31T16:36:14;4.25;;;1.30;;
73170;SDS011;61381;50.118;19.962;2023-07-31T16:41:15;2.22;;;1.33;;
73170;SDS011;61381;50.118;19.962;2023-07-31T16:46:17;4.90;;;1.38;;
73170;SDS011;61381;50.118;19.962;2023-07-31T16:51:18;2.63;;;1.20;;
73170;SDS011;61381;50.118;19.962;2023-07-31T16:56:19;4.00;;;1.42;;
73170;SDS011;61381;50.118;19.962;2023-07-31T17:01:23;4.50;;;1.50;;
73170;SDS011;61381;50.118;19.962;2023-07-31T17:06:24;4.53;;;1.58;;
73170;SDS011;61381;50.118;19.962;2023-07-31T17:11:25;3.97;;;1.60;;
73170;SDS011;61381;50.118;19.962;2023-07-31T17:16:27;4.00;;;1.42;;
73170;SDS011;61381;50.118;19.962;2023-07-31T17:21:28;2.25;;;1.40;;
73170;SDS011;61381;50.118;19.962;2023-07-31T17:26:29;2.92;;;1.30;;
73170;SDS011;61381;50.118;19.962;2023-07-31T17:31:31;2.25;;;1.40;;
73170;SDS011;61381;50.118;19.962;2023-07-31T17:36:32;3.58;;;1.45;;
73170;SDS011;61381;50.118;19.962;2023-07-31T17:41:33;3.92;;;1.45;;
73170;SDS011;61381;50.118;19.962;2023-07-31T17:46:36;2.42;;;1.50;;
73170;SDS011;61381;50.118;19.962;2023-07-31T17:51:37;3.92;;;1.58;;
73170;SDS011;61381;50.118;19.962;2023-07-31T17:56:37;5.50;;;1.30;;
73170;SDS011;61381;50.118;19.962;2023-07-31T18:01:40;3.53;;;1.70;;
73170;SDS011;61381;50.118;19.962;2023-07-31T18:06:41;3.28;;;1.73;;
73170;SDS011;61381;50.118;19.962;2023-07-31T18:11:41;4.78;;;1.52;;
73170;SDS011;61381;50.118;19.962;2023-07-31T18:16:44;2.47;;;1.40;;
73170;SDS011;61381;50.118;19.962;2023-07-31T18:21:45;4.65;;;1.38;;
73170;SDS011;61381;50.118;19.962;2023-07-31T18:26:46;4.20;;;1.50;;
73170;SDS011;61381;50.118;19.962;2023-07-31T18:31:48;3.30;;;1.50;;
73170;SDS011;61381;50.118;19.962;2023-07-31T18:36:49;2.08;;;1.27;;
73170;SDS011;61381;50.118;19.962;2023-07-31T18:41:50;2.67;;;1.85;;
73170;SDS011;61381;50.118;19.962;2023-07-31T18:46:52;3.30;;;1.65;;
73170;SDS011;61381;50.118;19.962;2023-07-31T18:51:53;3.75;;;1.65;;
73170;SDS011;61381;50.118;19.962;2023-07-31T18:56:54;4.78;;;1.52;;
73170;SDS011;61381;50.118;19.962;2023-07-31T19:01:56;5.93;;;2.08;;
73170;SDS011;61381;50.118;19.962;2023-07-31T19:06:57;6.30;;;2.63;;
73170;SDS011;61381;50.118;19.962;2023-07-31T19:11:58;8.88;;;2.40;;
73170;SDS011;61381;50.118;19.962;2023-07-31T19:17:00;5.25;;;2.72;;
73170;SDS011;61381;50.118;19.962;2023-07-31T19:22:01;8.25;;;3.20;;
73170;SDS011;61381;50.118;19.962;2023-07-31T19:27:03;8.57;;;2.90;;
73170;SDS011;61381;50.118;19.962;2023-07-31T19:32:06;5.78;;;2.35;;
73170;SDS011;61381;50.118;19.962;2023-07-31T19:37:07;8.13;;;2.60;;
73170;SDS011;61381;50.118;19.962;2023-07-31T19:42:07;5.03;;;2.63;;
73170;SDS011;61381;50.118;19.962;2023-07-31T19:47:10;7.38;;;3.08;;
73170;SDS011;61381;50.118;19.962;2023-07-31T19:52:11;7.72;;;3.17;;
73170;SDS011;61381;50.118;19.962;2023-07-31T19:57:12;12.10;;;4.70;;
73170;SDS011;61381;50.118;19.962;2023-07-31T20:02:14;11.77;;;4.40;;
73170;SDS011;61381;50.118;19.962;2023-07-31T20:07:15;10.35;;;3.40;;
73170;SDS011;61381;50.118;19.962;2023-07-31T20:12:16;10.68;;;3.88;;
73170;SDS011;61381;50.118;19.962;2023-07-31T20:17:18;20.52;;;6.57;;
73170;SDS011;61381;50.118;19.962;2023-07-31T20:22:19;12.55;;;4.28;;
73170;SDS011;61381;50.118;19.962;2023-07-31T20:27:21;6.13;;;2.83;;
73170;SDS011;61381;50.118;19.962;2023-07-31T20:32:24;10.77;;;3.90;;
73170;SDS011;61381;50.118;19.962;2023-07-31T20:37:25;5.63;;;2.47;;
73170;SDS011;61381;50.118;19.962;2023-07-31T20:42:26;7.85;;;3.90;;
73170;SDS011;61381;50.118;19.962;2023-07-31T20:47:29;9.27;;;4.28;;
73170;SDS011;61381;50.118;19.962;2023-07-31T20:52:29;11.80;;;5.07;;
73170;SDS011;61381;50.118;19.962;2023-07-31T20:57:30;5.15;;;2.67;;
73170;SDS011;61381;50.118;19.962;2023-07-31T21:02:33;5.22;;;2.67;;
73170;SDS011;61381;50.118;19.962;2023-07-31T21:07:34;8.70;;;4.28;;
73170;SDS011;61381;50.118;19.962;2023-07-31T21:12:35;12.40;;;5.00;;
73170;SDS011;61381;50.118;19.962;2023-07-31T21:17:37;7.93;;;4.28;;
73170;SDS011;61381;50.118;19.962;2023-07-31T21:22:38;25.80;;;10.05;;
73170;SDS011;61381;50.118;19.962;2023-07-31T21:27:39;11.18;;;5.05;;
73170;SDS011;61381;50.118;19.962;2023-07-31T21:32:41;25.95;;;10.10;;
73170;SDS011;61381;50.118;19.962;2023-07-31T21:37:42;22.05;;;8.80;;
73170;SDS011;61381;50.118;19.962;2023-07-31T21:42:43;8.98;;;4.00;;
73170;SDS011;61381;50.118;19.962;2023-07-31T21:47:46;9.70;;;3.92;;
73170;SDS011;61381;50.118;19.962;2023-07-31T21:52:46;9.10;;;4.18;;
73170;SDS011;61381;50.118;19.962;2023-07-31T21:57:47;8.43;;;4.13;;
73170;SDS011;61381;50.118;19.962;2023-07-31T22:02:49;7.47;;;3.22;;
73170;SDS011;61381;50.118;19.962;2023-07-31T22:07:50;5.07;;;2.78;;
73170;SDS011;61381;50.118;19.962;2023-07-31T22:12:51;12.75;;;8.73;;
73170;SDS011;61381;50.118;19.962;2023-07-31T22:17:54;9.13;;;5.22;;
73170;SDS011;61381;50.118;19.962;2023-07-31T22:22:54;7.93;;;4.63;;
73170;SDS011;61381;50.118;19.962;2023-07-31T22:27:55;12.30;;;6.97;;
73170;SDS011;61381;50.118;19.962;2023-07-31T22:32:58;8.90;;;4.15;;
73170;SDS011;61381;50.118;19.962;2023-07-31T22:37:59;7.82;;;4.20;;
73170;SDS011;61381;50.118;19.962;2023-07-31T22:42:59;7.28;;;3.80;;
73170;SDS011;61381;50.118;19.962;2023-07-31T22:48:02;7.60;;;3.97;;
73170;SDS011;61381;50.118;19.962;2023-07-31T22:53:03;6.45;;;3.75;;
73170;SDS011;61381;50.118;19.962;2023-07-31T22:58:04;8.88;;;4.03;;
73170;SDS011;61381;50.118;19.962;2023-07-31T23:03:06;5.38;;;3.20;;
73170;SDS011;61381;50.118;19.962;2023-07-31T23:08:07;5.13;;;3.25;;
73170;SDS011;61381;50.118;19.962;2023-07-31T23:13:08;6.53;;;3.60;;
73170;SDS011;61381;50.118;19.962;2023-07-31T23:18:10;7.78;;;4.10;;
73170;SDS011;61381;50.118;19.962;2023-07-31T23:23:11;7.70;;;4.50;;
73170;SDS011;61381;50.118;19.962;2023-07-31T23:28:12;7.75;;;4.30;;
73170;SDS011;61381;50.118;19.962;2023-07-31T23:33:14;7.75;;;3.90;;
73170;SDS011;61381;50.118;19.962;2023-07-31T23:38:15;6.07;;;3.40;;
73170;SDS011;61381;50.118;19.962;2023-07-31T23:43:16;4.30;;;3.22;;
73170;SDS011;61381;50.118;19.962;2023-07-31T23:48:18;5.72;;;3.45;;
73170;SDS011;61381;50.118;19.962;2023-07-31T23:53:19;6.45;;;3.70;;
73170;SDS011;61381;50.118;19.962;2023-07-31T23:58:20;7.15;;;3.80;;
